createdAt,value
2022-09-13T00:00:55.692Z,61.85
2022-09-13T00:03:25.084Z,62.41
2022-09-13T00:05:53.195Z,62.72
2022-09-13T00:08:21.370Z,63.01
2022-09-13T00:10:49.344Z,63.63
2022-09-13T00:13:18.302Z,63.65
2022-09-13T00:15:48.145Z,63.85
2022-09-13T00:18:17.342Z,63.82
2022-09-13T00:20:47.012Z,63.87
2022-09-13T00:23:15.251Z,63.86
2022-09-13T00:25:43.217Z,63.99
2022-09-13T00:28:11.214Z,63.82
2022-09-13T00:30:39.119Z,64.10
2022-09-13T00:33:07.144Z,63.91
2022-09-13T00:35:35.719Z,63.57
2022-09-13T00:38:05.011Z,64.09
2022-09-13T00:40:37.688Z,64.27
2022-09-13T00:43:05.687Z,64.33
2022-09-13T00:45:33.708Z,64.46
2022-09-13T00:48:04.153Z,64.44
2022-09-13T00:50:36.146Z,64.07
2022-09-13T00:53:08.484Z,64.46
2022-09-13T00:55:40.453Z,64.12
2022-09-13T00:58:12.716Z,63.77
2022-09-13T01:00:42.154Z,64.13
2022-09-13T01:03:13.289Z,64.43
2022-09-13T01:05:44.919Z,64.97
2022-09-13T01:08:22.989Z,64.58
2022-09-13T01:10:52.982Z,64.52
2022-09-13T01:13:23.733Z,64.91
2022-09-13T01:15:52.550Z,66.56
2022-09-13T01:18:21.602Z,67.13
2022-09-13T01:21:17.241Z,67.74
2022-09-13T01:24:12.595Z,66.02
2022-09-13T01:27:02.581Z,66.28
2022-09-13T01:29:51.589Z,66.01
2022-09-13T01:32:29.731Z,66.57
2022-09-13T01:35:08.887Z,66.44
2022-09-13T01:37:50.821Z,66.75
2022-09-13T01:40:32.599Z,65.96
2022-09-13T01:43:21.119Z,66.21
2022-09-13T01:45:58.029Z,65.41
2022-09-13T01:48:38.140Z,64.99
2022-09-13T01:51:11.774Z,64.89
2022-09-13T01:53:53.703Z,64.86
2022-09-13T01:56:27.930Z,65.55
2022-09-13T01:58:59.103Z,65.76
2022-09-13T02:01:31.765Z,66.58
2022-09-13T02:04:06.012Z,66.55
2022-09-13T02:06:39.908Z,66.45
2022-09-13T02:09:12.891Z,66.90
2022-09-13T02:11:45.799Z,66.97
2022-09-13T02:14:17.859Z,66.99
2022-09-13T02:16:52.475Z,66.74
2022-09-13T02:19:28.258Z,66.02
2022-09-13T02:21:59.723Z,66.24
2022-09-13T02:24:31.775Z,66.28
2022-09-13T02:27:04.119Z,65.93
2022-09-13T02:29:34.324Z,66.31
2022-09-13T02:32:07.700Z,66.51
2022-09-13T02:34:41.292Z,66.68
2022-09-13T02:37:12.044Z,66.67
2022-09-13T02:39:47.125Z,66.08
2022-09-13T02:42:19.716Z,66.38
2022-09-13T02:44:50.971Z,66.58
2022-09-13T02:47:32.375Z,66.19
2022-09-13T02:50:11.789Z,66.59
2022-09-13T02:52:50.329Z,66.29
2022-09-13T02:55:25.889Z,65.97
2022-09-13T02:58:03.783Z,67.21
2022-09-13T03:00:32.452Z,66.78
2022-09-13T03:03:05.536Z,66.50
2022-09-13T03:05:34.864Z,67.04
2022-09-13T03:08:04.035Z,67.93
2022-09-13T03:10:41.453Z,68.82
2022-09-13T03:13:34.843Z,69.07
2022-09-13T03:16:17.328Z,69.64
2022-09-13T03:18:57.028Z,69.01
2022-09-13T03:21:45.194Z,68.56
2022-09-13T03:24:23.948Z,67.81
2022-09-13T03:27:07.788Z,67.57
2022-09-13T03:29:46.709Z,67.71
2022-09-13T03:32:25.883Z,67.82
2022-09-13T03:35:00.419Z,67.92
2022-09-13T03:37:36.200Z,67.28
2022-09-13T03:40:10.723Z,66.56
2022-09-13T03:42:46.468Z,66.51
2022-09-13T03:45:18.083Z,66.94
2022-09-13T03:47:48.613Z,67.32
2022-09-13T03:50:20.690Z,68.01
2022-09-13T03:52:54.855Z,68.55
2022-09-13T03:55:23.712Z,68.65
2022-09-13T03:57:51.607Z,68.83
2022-09-13T04:00:20.341Z,68.58
2022-09-13T04:02:48.256Z,67.60
2022-09-13T04:05:16.262Z,66.94
2022-09-13T04:07:44.184Z,66.73
2022-09-13T04:10:14.158Z,67.20
2022-09-13T04:12:42.395Z,67.69
2022-09-13T04:15:11.295Z,67.80
2022-09-13T04:17:39.274Z,68.63
2022-09-13T04:20:07.753Z,69.40
2022-09-13T04:22:35.654Z,69.78
2022-09-13T04:25:03.959Z,67.69
2022-09-13T04:27:33.394Z,65.87
2022-09-13T04:30:01.301Z,66.96
2022-09-13T04:32:29.745Z,68.18
2022-09-13T04:34:57.673Z,69.22
2022-09-13T04:37:25.601Z,69.48
2022-09-13T04:39:53.636Z,70.16
2022-09-13T04:42:21.629Z,69.75
2022-09-13T04:44:50.950Z,71.07
2022-09-13T04:47:19.131Z,71.47
2022-09-13T04:49:48.582Z,71.91
2022-09-13T04:52:16.503Z,71.31
2022-09-13T04:54:44.555Z,71.51
2022-09-13T04:57:12.730Z,71.29
2022-09-13T04:59:40.681Z,70.76
2022-09-13T05:02:10.305Z,70.29
2022-09-13T05:04:38.460Z,69.70
2022-09-13T05:07:06.347Z,69.48
2022-09-13T05:09:34.269Z,69.15
2022-09-13T05:12:02.188Z,68.88
2022-09-13T05:14:30.188Z,69.23
2022-09-13T05:16:58.108Z,68.77
2022-09-13T05:19:27.468Z,68.58
2022-09-13T05:21:55.395Z,67.94
2022-09-13T05:24:23.553Z,67.99
2022-09-13T05:26:51.447Z,68.58
2022-09-13T05:29:19.376Z,68.62
2022-09-13T05:31:47.348Z,68.80
2022-09-13T05:34:17.664Z,68.33
2022-09-13T05:36:51.668Z,68.31
2022-09-13T05:39:43.753Z,68.23
2022-09-13T05:42:10.948Z,68.32
2022-09-13T05:44:38.900Z,68.50
2022-09-13T05:47:07.146Z,69.52
2022-09-13T05:49:41.763Z,69.17
2022-09-13T05:52:19.347Z,71.31
2022-09-13T05:54:47.222Z,72.95
2022-09-13T05:57:15.118Z,73.24
2022-09-13T05:59:43.676Z,74.63
2022-09-13T06:02:11.904Z,74.87
2022-09-13T06:04:39.847Z,72.59
2022-09-13T06:07:07.775Z,71.33
2022-09-13T06:09:37.333Z,70.37
2022-09-13T06:12:05.685Z,70.10
2022-09-13T06:14:33.569Z,70.75
2022-09-13T06:17:01.512Z,70.53
2022-09-13T06:19:29.408Z,70.89
2022-09-13T06:21:57.323Z,71.08
2022-09-13T06:24:25.264Z,71.80
2022-09-13T06:26:54.889Z,72.23
2022-09-13T06:29:22.823Z,73.78
2022-09-13T06:31:50.785Z,74.77
2022-09-13T06:34:18.694Z,76.89
2022-09-13T06:36:46.695Z,76.67
2022-09-13T06:39:14.681Z,74.58
2022-09-13T06:41:42.583Z,73.08
2022-09-13T06:44:12.188Z,71.06
2022-09-13T06:46:40.304Z,70.31
2022-09-13T06:49:09.800Z,69.91
2022-09-13T06:51:38.200Z,69.86
2022-09-13T06:54:06.349Z,68.96
2022-09-13T06:56:35.840Z,68.84
2022-09-13T06:59:05.800Z,69.34
2022-09-13T07:01:37.824Z,69.81
2022-09-13T07:04:07.808Z,69.50
2022-09-13T07:06:38.296Z,68.88
2022-09-13T07:09:08.215Z,67.98
2022-09-13T07:11:38.616Z,68.34
2022-09-13T07:14:07.814Z,67.74
2022-09-13T07:16:38.997Z,67.90
2022-09-13T07:19:10.575Z,68.45
2022-09-13T07:21:38.635Z,70.97
2022-09-13T07:24:07.380Z,71.03
2022-09-13T07:26:35.611Z,70.69
2022-09-13T07:29:06.283Z,70.95
2022-09-13T07:31:35.910Z,70.77
2022-09-13T07:34:08.047Z,71.06
2022-09-13T07:36:37.747Z,72.20
2022-09-13T07:39:07.637Z,73.05
2022-09-13T07:41:38.583Z,73.18
2022-09-13T07:44:07.872Z,73.41
2022-09-13T07:46:43.519Z,73.72
2022-09-13T07:49:14.455Z,74.61
2022-09-13T07:51:44.264Z,74.05
2022-09-13T07:54:14.302Z,72.94
2022-09-13T07:56:42.930Z,72.04
2022-09-13T07:59:14.022Z,70.90
2022-09-13T08:01:43.417Z,70.40
2022-09-13T08:04:14.521Z,68.91
2022-09-13T08:06:43.474Z,71.01
2022-09-13T08:09:11.932Z,71.82
2022-09-13T08:11:41.206Z,71.89
2022-09-13T08:14:11.680Z,73.12
2022-09-13T08:16:40.477Z,73.29
2022-09-13T08:19:09.662Z,71.55
2022-09-13T08:21:41.576Z,71.19
2022-09-13T08:24:15.352Z,70.53
2022-09-13T08:26:43.316Z,69.83
2022-09-13T08:29:13.778Z,67.97
2022-09-13T08:31:42.491Z,67.58
2022-09-13T08:34:12.993Z,69.54
2022-09-13T08:36:42.398Z,70.72
2022-09-13T08:39:12.029Z,70.74
2022-09-13T08:42:02.665Z,71.57
2022-09-13T08:44:34.404Z,71.37
2022-09-13T08:47:19.792Z,71.63
2022-09-13T08:49:50.755Z,70.42
2022-09-13T08:52:30.629Z,69.77
2022-09-13T08:55:00.000Z,68.52
2022-09-13T08:57:37.249Z,67.69
2022-09-13T09:00:20.527Z,66.30
2022-09-13T09:02:59.323Z,64.75
2022-09-13T09:05:30.248Z,64.67
2022-09-13T09:08:02.794Z,64.50
2022-09-13T09:10:33.968Z,62.51
2022-09-13T09:13:07.552Z,60.76
2022-09-13T09:15:38.511Z,59.58
2022-09-13T09:18:12.196Z,59.14
2022-09-13T09:20:43.399Z,59.22
2022-09-13T09:23:21.368Z,58.48
2022-09-13T09:25:53.092Z,58.34
2022-09-13T09:28:23.094Z,58.43
2022-09-13T09:31:00.040Z,59.23
2022-09-13T09:33:47.888Z,59.14
2022-09-13T09:36:25.405Z,59.67
2022-09-13T09:38:54.763Z,59.81
2022-09-13T09:41:29.025Z,60.03
2022-09-13T09:44:02.788Z,59.89
2022-09-13T09:46:34.690Z,60.15
2022-09-13T09:49:28.836Z,59.50
2022-09-13T09:51:58.446Z,59.59
2022-09-13T09:54:31.494Z,59.70
2022-09-13T09:57:00.014Z,59.54
2022-09-13T09:59:31.256Z,59.04
2022-09-13T10:02:00.274Z,58.16
2022-09-13T10:04:29.678Z,57.43
2022-09-13T10:07:20.388Z,57.62
2022-09-13T10:10:00.035Z,57.13
2022-09-13T10:12:29.952Z,56.57
2022-09-13T10:15:06.918Z,56.67
2022-09-13T10:17:34.863Z,56.33
2022-09-13T10:20:05.535Z,56.18
2022-09-13T10:22:34.606Z,55.45
2022-09-13T10:25:22.598Z,56.41
2022-09-13T10:27:54.294Z,56.13
2022-09-13T10:30:34.182Z,55.47
2022-09-13T10:33:03.958Z,55.87
2022-09-13T10:35:32.684Z,56.61
2022-09-13T10:38:00.706Z,56.55
2022-09-13T10:40:33.686Z,56.88
2022-09-13T10:43:04.953Z,55.81
2022-09-13T10:45:33.250Z,56.80
2022-09-13T10:48:07.059Z,56.95
2022-09-13T10:50:36.291Z,57.26
2022-09-13T10:53:05.627Z,57.90
2022-09-13T10:55:36.843Z,57.51
2022-09-13T10:58:24.564Z,56.51
2022-09-13T11:01:29.160Z,56.71
2022-09-13T11:04:32.549Z,55.14
2022-09-13T11:07:15.660Z,56.70
2022-09-13T11:09:53.403Z,56.85
2022-09-13T11:12:30.270Z,57.45
2022-09-13T11:15:06.381Z,56.81
2022-09-13T11:17:59.195Z,57.04
2022-09-13T11:20:39.515Z,54.88
2022-09-13T11:23:29.756Z,54.43
2022-09-13T11:26:08.520Z,54.43
2022-09-13T11:28:50.305Z,53.17
2022-09-13T11:31:33.321Z,53.25
2022-09-13T11:34:18.115Z,52.81
2022-09-13T11:37:10.795Z,54.66
2022-09-13T11:39:40.388Z,55.45
2022-09-13T11:42:23.263Z,50.71
2022-09-13T11:45:24.105Z,50.46
2022-09-13T11:48:08.771Z,54.09
2022-09-13T11:50:45.737Z,53.20
2022-09-13T11:53:38.469Z,53.09
2022-09-13T11:56:10.703Z,51.96
2022-09-13T11:58:45.702Z,52.31
2022-09-13T12:01:21.706Z,52.22
2022-09-13T12:03:57.810Z,53.54
2022-09-13T12:06:30.191Z,55.11
2022-09-13T12:09:03.949Z,54.63
2022-09-13T12:11:35.899Z,54.22
2022-09-13T12:14:07.749Z,53.18
2022-09-13T12:16:42.086Z,55.41
2022-09-13T12:19:17.874Z,54.13
2022-09-13T12:21:48.290Z,53.15
2022-09-13T12:24:19.723Z,53.47
2022-09-13T12:26:53.692Z,53.42
2022-09-13T12:29:29.559Z,53.35
2022-09-13T12:32:03.403Z,53.21
2022-09-13T12:34:40.389Z,55.90
2022-09-13T12:37:20.063Z,54.24
2022-09-13T12:40:15.612Z,52.70
2022-09-13T12:43:18.386Z,52.56
2022-09-13T12:46:16.675Z,53.36
2022-09-13T12:48:58.924Z,49.40
2022-09-13T12:51:43.371Z,50.83
2022-09-13T12:54:37.466Z,51.03
2022-09-13T12:57:19.471Z,51.83
2022-09-13T13:00:19.030Z,51.58
2022-09-13T13:02:55.085Z,51.12
2022-09-13T13:05:30.776Z,49.97
2022-09-13T13:08:02.470Z,51.65
2022-09-13T13:10:33.757Z,51.06
2022-09-13T13:13:13.377Z,51.58
2022-09-13T13:16:05.704Z,51.25
2022-09-13T13:18:46.145Z,52.37
2022-09-13T13:21:31.985Z,49.87
2022-09-13T13:24:37.908Z,50.78
2022-09-13T13:27:34.156Z,50.96
2022-09-13T13:30:40.276Z,52.43
2022-09-13T13:33:16.224Z,51.38
2022-09-13T13:35:44.755Z,52.59
2022-09-13T13:38:32.656Z,52.24
2022-09-13T13:41:12.767Z,51.58
2022-09-13T13:43:40.948Z,51.41
2022-09-13T13:46:29.128Z,52.24
2022-09-13T13:48:57.535Z,52.47
2022-09-13T13:51:27.844Z,52.14
2022-09-13T13:54:31.341Z,52.03
2022-09-13T13:56:59.333Z,52.53
2022-09-13T13:59:32.717Z,52.95
2022-09-13T14:02:01.990Z,53.30
2022-09-13T14:04:54.298Z,52.63
2022-09-13T14:07:37.931Z,53.82
2022-09-13T14:10:13.275Z,54.59
2022-09-13T14:12:57.715Z,54.18
2022-09-13T14:15:47.573Z,54.71
2022-09-13T14:18:36.228Z,54.70
2022-09-13T14:21:06.476Z,54.63
2022-09-13T14:23:35.320Z,54.74
2022-09-13T14:26:07.051Z,55.20
2022-09-13T14:28:35.802Z,55.58
2022-09-13T14:31:04.073Z,56.22
2022-09-13T14:33:35.159Z,55.95
2022-09-13T14:36:07.096Z,55.83
2022-09-13T14:38:36.626Z,56.28
2022-09-13T14:41:15.019Z,55.83
2022-09-13T14:43:43.615Z,56.27
2022-09-13T14:46:17.554Z,56.19
2022-09-13T14:48:51.663Z,56.22
2022-09-13T14:51:25.398Z,56.40
2022-09-13T14:53:58.204Z,56.64
2022-09-13T14:56:37.083Z,57.78
2022-09-13T14:59:07.948Z,58.17
2022-09-13T15:01:37.069Z,58.14
2022-09-13T15:04:07.607Z,58.57
2022-09-13T15:06:39.157Z,58.38
2022-09-13T15:09:27.505Z,59.80
2022-09-13T15:12:23.141Z,59.33
2022-09-13T15:14:51.063Z,58.90
2022-09-13T15:17:18.982Z,58.69
2022-09-13T15:19:51.152Z,58.56
2022-09-13T15:22:26.430Z,58.89
2022-09-13T15:24:56.598Z,58.16
2022-09-13T15:27:29.294Z,59.00
2022-09-13T15:30:00.419Z,58.24
2022-09-13T15:32:34.897Z,58.66
2022-09-13T15:35:03.797Z,58.22
2022-09-13T15:37:37.502Z,58.51
2022-09-13T15:40:22.216Z,59.01
2022-09-13T15:42:52.838Z,58.41
2022-09-13T15:45:22.964Z,58.43
2022-09-13T15:47:52.991Z,59.12
2022-09-13T15:50:23.984Z,58.83
2022-09-13T15:52:51.895Z,59.10
2022-09-13T15:55:19.865Z,59.65
2022-09-13T15:57:48.562Z,60.50
2022-09-13T16:00:21.241Z,60.94
2022-09-13T16:02:49.707Z,61.30
2022-09-13T16:05:17.984Z,61.38
2022-09-13T16:07:46.648Z,61.30
2022-09-13T16:10:17.369Z,61.41
2022-09-13T16:12:46.900Z,61.74
2022-09-13T16:15:15.614Z,62.10
2022-09-13T16:17:45.049Z,62.39
2022-09-13T16:20:15.296Z,63.66
2022-09-13T16:22:43.587Z,62.96
2022-09-13T18:14:14.751Z,65.41
2022-09-13T18:16:43.167Z,65.66
2022-09-13T18:19:12.172Z,66.44
2022-09-13T18:21:40.258Z,66.54
2022-09-13T18:24:08.270Z,67.17
2022-09-13T18:26:36.982Z,67.24
2022-09-13T18:29:07.002Z,67.32
2022-09-13T18:34:35.537Z,68.24
2022-09-13T18:37:03.537Z,68.32
2022-09-13T18:39:31.682Z,69.34
2022-09-13T18:42:01.096Z,69.98
2022-09-13T18:44:30.386Z,70.15
2022-09-13T18:46:58.387Z,70.52
2022-09-13T18:49:26.310Z,70.67
2022-09-13T18:51:55.624Z,71.01
2022-09-13T18:54:23.575Z,70.94
2022-09-13T18:56:51.698Z,71.65
2022-09-13T18:59:19.712Z,71.69
2022-09-13T19:01:48.856Z,71.99
2022-09-13T19:04:18.502Z,72.08
2022-09-13T19:06:48.470Z,72.94
2022-09-13T19:09:20.650Z,73.15
2022-09-13T19:11:50.785Z,72.69
2022-09-13T19:14:21.647Z,73.03
2022-09-13T19:16:50.547Z,72.61
2022-09-13T19:19:18.520Z,73.28
2022-09-13T19:21:46.609Z,73.35
2022-09-13T19:24:18.226Z,73.67
2022-09-13T19:26:50.725Z,73.97
2022-09-13T19:29:22.877Z,74.23
2022-09-13T19:31:53.097Z,74.58
2022-09-13T19:34:23.506Z,75.02
2022-09-13T19:36:57.565Z,75.38
2022-09-13T19:39:29.627Z,75.35
2022-09-13T19:42:00.836Z,75.67
2022-09-13T19:44:28.914Z,76.00
2022-09-13T19:47:36.168Z,77.76
2022-09-13T19:49:44.791Z,79.44
2022-09-13T19:52:12.729Z,81.67
2022-09-13T19:54:40.674Z,82.77
2022-09-13T19:57:10.104Z,84.55
2022-09-13T19:59:38.058Z,84.63
2022-09-13T20:02:06.747Z,85.74
2022-09-13T20:04:34.866Z,85.73
2022-09-13T20:07:02.840Z,86.25
2022-09-13T20:09:31.853Z,86.89
2022-09-13T20:12:00.734Z,87.95
2022-09-13T20:14:30.111Z,87.86
2022-09-13T20:16:58.685Z,87.82
2022-09-13T20:19:46.342Z,85.35
2022-09-13T20:22:14.749Z,82.28
2022-09-13T20:24:43.287Z,80.85
2022-09-13T20:27:11.525Z,81.66
2022-09-13T20:29:41.544Z,83.98
2022-09-13T20:32:09.544Z,85.53
2022-09-13T20:34:37.836Z,85.20
2022-09-13T20:37:05.906Z,86.01
2022-09-13T20:39:33.832Z,87.13
2022-09-13T20:42:01.950Z,88.08
2022-09-13T20:44:29.875Z,88.71
2022-09-13T20:46:59.218Z,89.77
2022-09-13T20:49:28.468Z,90.00
2022-09-13T20:51:56.623Z,90.79
2022-09-13T20:54:24.506Z,91.06
2022-09-13T20:56:52.457Z,91.83
2022-09-13T20:59:21.243Z,92.38
2022-09-13T21:01:49.789Z,92.72
2022-09-13T21:04:19.206Z,92.10
2022-09-13T21:07:01.050Z,91.67
2022-09-13T21:09:29.021Z,91.88
2022-09-13T21:11:56.934Z,90.40
2022-09-13T21:14:24.835Z,90.67
2022-09-13T21:16:52.901Z,91.11
2022-09-13T21:19:22.423Z,91.18
2022-09-13T21:21:50.488Z,90.70
2022-09-13T21:24:18.635Z,88.68
2022-09-13T21:26:46.557Z,88.90
2022-09-13T21:29:14.533Z,90.24
2022-09-13T21:31:42.479Z,89.38
2022-09-13T21:34:15.204Z,89.25
2022-09-13T21:36:45.917Z,91.33
2022-09-13T21:39:14.304Z,91.85
2022-09-13T21:41:42.405Z,91.76
2022-09-13T21:44:10.498Z,91.36
2022-09-13T21:46:40.008Z,90.57
2022-09-13T21:49:10.714Z,90.86
2022-09-13T21:51:40.835Z,90.18
2022-09-13T21:54:12.210Z,89.48
2022-09-13T21:56:42.226Z,88.63
2022-09-13T21:59:14.470Z,87.61
2022-09-13T22:01:44.394Z,86.71
2022-09-13T22:04:16.673Z,86.82
2022-09-13T22:06:45.052Z,86.82
2022-09-13T22:09:15.521Z,86.41
2022-09-13T22:11:45.303Z,87.92
2022-09-13T22:14:14.619Z,89.23
2022-09-13T22:16:44.148Z,88.55
2022-09-13T22:19:14.429Z,88.65
2022-09-13T22:21:44.186Z,87.77
2022-09-13T22:24:17.533Z,88.41
2022-09-13T22:26:47.375Z,89.78
2022-09-13T22:29:16.162Z,89.15
2022-09-13T22:31:45.845Z,89.18
2022-09-13T22:34:15.879Z,89.81
2022-09-13T22:36:44.441Z,89.95
2022-09-13T22:39:13.936Z,90.74
2022-09-13T22:41:43.561Z,90.53
2022-09-13T22:44:12.001Z,91.35
2022-09-13T22:46:42.516Z,91.06
2022-09-13T22:49:13.495Z,90.03
2022-09-13T22:51:41.807Z,89.87
2022-09-13T22:54:09.745Z,89.65
2022-09-13T22:56:38.659Z,89.31
2022-09-13T22:59:09.803Z,89.74
2022-09-13T23:01:38.338Z,90.20
2022-09-13T23:04:06.896Z,88.64
2022-09-13T23:06:35.771Z,88.20
2022-09-13T23:09:07.108Z,88.93
2022-09-13T23:11:36.900Z,89.16
2022-09-13T23:14:08.349Z,89.28
2022-09-13T23:16:38.744Z,90.34
2022-09-13T23:19:06.855Z,90.24
2022-09-13T23:21:37.620Z,90.48
2022-09-13T23:24:07.492Z,90.46
2022-09-13T23:26:35.803Z,91.02
2022-09-13T23:29:05.696Z,91.73
2022-09-13T23:31:38.908Z,92.04
2022-09-13T23:34:08.479Z,92.54
2022-09-13T23:36:38.889Z,93.11
2022-09-13T23:39:09.620Z,92.68
2022-09-13T23:41:38.284Z,92.93
2022-09-13T23:44:06.283Z,92.43
2022-09-13T23:46:35.607Z,92.56
2022-09-13T23:49:03.574Z,93.00
2022-09-13T23:51:31.634Z,93.40
2022-09-13T23:54:01.062Z,93.93
2022-09-13T23:56:31.065Z,94.01
2022-09-13T23:59:01.134Z,94.56
